Time;durP1;ratioP1;P1;durP2;ratioP2;P2;SDS_P1;SDS_P2;PMS_P1;PMS_P2;Temp;Humidity;BMP_temperature;BMP_pressure;BME280_temperature;BME280_humidity;BME280_pressure;Samples;Min_cycle;Max_cycle;Signal;HPM_P1;HPM_P2
2023/08/01 00:03:17;;;;;;;6.40;4.15;;;;;;;19.71;81.68;98016.69;6955223;40;20251;31
2023/08/01 00:08:37;;;;;;;4.93;3.62;;;;;;;19.76;82.31;97999.53;7175616;40;20389;31
2023/08/01 00:14:14;;;;;;;6.90;3.50;;;;;;;19.83;82.26;97999.34;7176332;40;20358;31
2023/08/01 00:19:34;;;;;;;5.65;3.60;;;;;;;19.77;81.91;97985.62;7152168;40;20285;31
2023/08/01 00:25:09;;;;;;;5.90;4.20;;;;;;;19.82;83.40;97975.81;7175540;40;20262;31
2023/08/01 00:30:45;;;;;;;6.75;4.15;;;;;;;19.76;82.22;97967.53;7192938;40;20304;31
2023/08/01 00:36:20;;;;;;;7.27;4.20;;;;;;;19.71;83.20;97980.31;7261744;40;20409;31
2023/08/01 00:41:55;;;;;;;6.90;4.30;;;;;;;19.71;84.18;97975.69;7275292;40;20319;31
2023/08/01 00:47:31;;;;;;;7.23;3.83;;;;;;;19.65;83.47;97967.69;7221100;40;20277;31
2023/08/01 00:53:06;;;;;;;6.77;3.57;;;;;;;19.61;84.36;97975.59;7181250;40;20247;31
2023/08/01 00:58:41;;;;;;;5.37;3.50;;;;;;;19.53;84.60;97975.16;7191192;40;20266;31
2023/08/01 01:04:17;;;;;;;6.60;3.60;;;;;;;19.49;83.98;97957.63;7145584;40;20252;31
2023/08/01 01:09:49;;;;;;;6.75;3.70;;;;;;;19.42;85.96;97941.41;7195531;40;20250;31
2023/08/01 01:15:10;;;;;;;6.47;4.10;;;;;;;19.38;85.95;97904.72;7151884;40;20404;31
2023/08/01 01:20:47;;;;;;;7.03;3.60;;;;;;;19.37;85.35;97887.50;7232113;40;20265;31
2023/08/01 01:31:26;;;;;;;4.73;3.60;;;;;;;19.41;85.77;97876.88;7245546;40;20270;31
2023/08/01 01:42:03;;;;;;;7.63;3.70;;;;;;;19.45;85.58;97894.44;7222677;40;20757;31
2023/08/01 01:47:38;;;;;;;9.17;4.23;;;;;;;19.47;85.76;97897.78;7255795;40;20281;31
2023/08/01 01:58:18;;;;;;;7.07;3.87;;;;;;;19.45;85.57;97880.78;7253032;40;20273;31
2023/08/01 02:03:36;;;;;;;6.30;3.50;;;;;;;19.49;84.38;97865.53;7249780;40;20253;31
2023/08/01 02:08:54;;;;;;;6.45;4.00;;;;;;;19.47;84.13;97873.16;7235753;40;20442;31
2023/08/01 02:14:26;;;;;;;5.75;3.30;;;;;;;19.44;84.41;97860.00;7233333;40;20436;31
2023/08/01 02:20:01;;;;;;;8.50;3.50;;;;;;;19.46;84.78;97870.69;7187475;40;21401;31
2023/08/01 02:25:22;;;;;;;7.07;3.67;;;;;;;19.46;84.51;97866.03;7210370;40;20404;31
2023/08/01 02:35:59;;;;;;;4.53;3.80;;;;;;;19.46;85.05;97837.88;7253535;40;20265;31
2023/08/01 02:41:20;;;;;;;7.40;3.33;;;;;;;19.43;84.53;97832.91;7253767;40;20264;31
2023/08/01 02:46:37;;;;;;;5.80;3.55;;;;;;;19.41;84.42;97791.34;7258463;39;20340;31
2023/08/01 02:52:07;;;;;;;5.40;3.53;;;;;;;19.32;86.34;97796.44;7295732;39;20359;31
2023/08/01 02:57:42;;;;;;;6.00;3.65;;;;;;;19.31;85.87;97820.19;7222973;40;20250;31
2023/08/01 03:03:17;;;;;;;6.63;3.63;;;;;;;19.32;86.31;97818.28;7246178;40;20389;31
2023/08/01 03:08:51;;;;;;;4.97;3.50;;;;;;;19.27;86.52;97812.78;7235752;40;20250;31
2023/08/01 03:14:12;;;;;;;5.77;3.33;;;;;;;19.30;86.28;97815.00;7194217;40;20255;31
2023/08/01 03:19:46;;;;;;;6.20;3.05;;;;;;;19.27;86.57;97782.72;7204151;40;20362;31
2023/08/01 03:25:23;;;;;;;4.60;3.47;;;;;;;19.23;85.76;97787.03;7174451;40;20258;31
2023/08/01 03:30:41;;;;;;;6.00;3.53;;;;;;;19.24;85.66;97799.63;7178080;40;20349;31
2023/08/01 03:36:16;;;;;;;4.33;3.00;;;;;;;19.23;85.48;97784.31;7196959;40;20258;31
2023/08/01 03:46:56;;;;;;;4.37;3.00;;;;;;;19.19;85.75;97774.97;7162231;40;20352;31
2023/08/01 03:52:16;;;;;;;5.30;2.80;;;;;;;19.18;86.04;97773.31;7134958;40;20254;31
2023/08/01 03:57:33;;;;;;;6.40;3.30;;;;;;;19.18;85.31;97801.47;7203425;40;20280;31
2023/08/01 04:03:05;;;;;;;6.85;3.15;;;;;;;19.16;86.07;97802.81;7254143;40;20351;31
2023/08/01 04:08:37;;;;;;;5.83;3.20;;;;;;;19.15;86.83;97771.12;7175683;40;20409;31
2023/08/01 04:14:12;;;;;;;7.10;3.30;;;;;;;19.08;87.75;97762.31;7143124;40;20266;31
2023/08/01 04:19:48;;;;;;;4.90;3.00;;;;;;;19.09;86.88;97785.78;7134155;40;20341;31
2023/08/01 04:25:24;;;;;;;5.40;3.30;;;;;;;19.07;86.39;97771.56;7126710;40;20263;31
2023/08/01 04:31:01;;;;;;;5.95;4.10;;;;;;;18.95;86.64;97757.25;7116001;40;20290;31
2023/08/01 04:36:37;;;;;;;5.93;4.10;;;;;;;18.89;85.03;97759.91;7096220;40;20325;31
2023/08/01 04:41:57;;;;;;;7.65;4.65;;;;;;;18.92;85.17;97774.94;7144713;40;20275;31
2023/08/01 04:52:38;;;;;;;7.96;6.00;;;;;;;18.89;83.07;97743.53;7265086;39;20257;31
2023/08/01 04:58:13;;;;;;;9.67;5.47;;;;;;;18.90;83.30;97761.56;7285956;40;20260;31
2023/08/01 05:03:33;;;;;;;6.57;5.13;;;;;;;18.88;82.70;97741.03;7307676;39;20338;31
2023/08/01 05:09:04;;;;;;;9.45;5.60;;;;;;;18.83;83.31;97755.47;7335032;39;20318;31
2023/08/01 05:14:21;;;;;;;8.30;4.93;;;;;;;18.82;83.91;97748.34;7275037;40;20380;31
2023/08/01 05:19:38;;;;;;;8.73;5.00;;;;;;;18.72;84.81;97761.88;7241979;40;20318;31
2023/08/01 05:25:11;;;;;;;5.90;4.35;;;;;;;18.58;87.20;97762.50;7273829;40;20260;31
2023/08/01 05:30:46;;;;;;;5.37;4.10;;;;;;;18.48;88.24;97752.25;7199447;40;20375;31
2023/08/01 05:41:24;;;;;;;5.40;4.20;;;;;;;18.49;88.37;97748.44;7225253;40;20266;31
2023/08/01 05:51:46;;;;;;;3.80;2.80;;;;;;;18.56;88.30;97753.75;7293256;39;21112;31
2023/08/01 06:02:26;;;;;;;3.80;2.70;;;;;;;18.54;88.88;97748.53;7307853;39;21091;31
2023/08/01 06:07:46;;;;;;;4.30;2.43;;;;;;;18.54;88.17;97739.53;7297361;40;20307;31
2023/08/01 06:13:18;;;;;;;3.30;2.30;;;;;;;18.59;88.98;97745.87;7321191;39;20274;31
2023/08/01 06:18:54;;;;;;;3.10;2.40;;;;;;;18.58;89.74;97757.88;7253360;40;20264;31
2023/08/01 06:29:33;;;;;;;3.25;1.90;;;;;;;18.54;90.49;97767.66;7218002;40;20269;31
2023/08/01 06:35:10;;;;;;;2.67;1.95;;;;;;;18.54;90.70;97772.28;7234964;40;20382;31
2023/08/01 06:40:42;;;;;;;2.00;1.60;;;;;;;18.54;89.92;97756.72;7211233;40;20292;31
2023/08/01 06:46:17;;;;;;;2.10;1.80;;;;;;;18.58;90.20;97751.59;7193920;40;20298;31
2023/08/01 06:51:50;;;;;;;1.70;1.50;;;;;;;18.60;90.43;97754.91;6972218;40;21969;31
2023/08/01 06:57:10;;;;;;;2.50;1.70;;;;;;;18.61;90.67;97740.16;7173985;40;20274;31
2023/08/01 07:02:45;;;;;;;3.20;1.70;;;;;;;18.60;91.48;97744.81;7202575;40;20393;31
2023/08/01 07:13:22;;;;;;;1.73;1.40;;;;;;;18.66;90.89;97735.59;7256109;40;20273;31
2023/08/01 07:23:48;;;;;;;1.52;1.28;;;;;;;18.66;91.66;97760.16;7207688;40;20282;31
2023/08/01 07:34:22;;;;;;;1.56;1.30;;;;;;;18.71;92.96;97771.16;7284873;39;20383;31
2023/08/01 07:39:54;;;;;;;2.20;0.90;;;;;;;18.79;92.60;97794.44;7269124;40;20284;31
2023/08/01 07:45:29;;;;;;;1.53;1.20;;;;;;;18.89;90.97;97792.69;7232382;40;20305;31
2023/08/01 07:51:03;;;;;;;1.40;1.23;;;;;;;19.03;90.27;97803.22;7259272;40;20318;31
2023/08/01 07:56:37;;;;;;;1.33;1.00;;;;;;;19.24;88.79;97807.81;7163287;40;20263;31
2023/08/01 08:07:15;;;;;;;1.00;0.90;;;;;;;19.61;88.97;97825.22;7224000;40;20890;31
2023/08/01 08:12:50;;;;;;;1.50;1.07;;;;;;;19.67;88.11;97834.28;7200277;40;20249;31
2023/08/01 08:18:11;;;;;;;1.30;0.93;;;;;;;19.68;86.71;97833.19;7234852;40;20269;31
2023/08/01 08:23:46;;;;;;;1.13;0.90;;;;;;;19.68;86.72;97836.75;7255346;40;20253;31
2023/08/01 08:29:21;;;;;;;0.90;0.80;;;;;;;19.61;86.84;97838.06;7231692;40;21277;31
2023/08/01 08:34:42;;;;;;;1.13;0.93;;;;;;;19.78;86.88;97844.25;7172514;40;20390;31
2023/08/01 08:40:15;;;;;;;1.03;0.93;;;;;;;19.87;85.45;97829.03;7189939;40;20333;31
2023/08/01 08:45:50;;;;;;;1.10;1.00;;;;;;;20.18;84.86;97838.31;7199031;40;20257;31
2023/08/01 08:51:25;;;;;;;0.90;0.90;;;;;;;20.71;82.87;97836.53;7120109;40;20244;31
2023/08/01 08:56:58;;;;;;;1.20;1.10;;;;;;;20.89;80.68;97841.53;7168031;40;20281;31
2023/08/01 09:02:30;;;;;;;2.05;1.00;;;;;;;20.74;80.14;97855.16;7174878;40;20322;31
2023/08/01 09:08:02;;;;;;;1.87;1.27;;;;;;;20.56;81.58;97857.25;7212726;40;20276;31
2023/08/01 09:13:38;;;;;;;1.27;0.90;;;;;;;20.57;80.92;97867.09;7224278;40;20481;31
2023/08/01 09:19:12;;;;;;;1.03;0.90;;;;;;;20.50;82.49;97882.91;7239729;40;20287;31
2023/08/01 09:24:42;;;;;;;1.17;1.07;;;;;;;20.63;81.59;97862.47;7252278;40;20241;31
2023/08/01 09:30:21;;;;;;;1.00;0.90;;;;;;;21.24;78.56;97862.84;7256699;40;20483;31
2023/08/01 09:35:56;;;;;;;2.00;1.10;;;;;;;21.62;76.79;97859.69;7214956;40;20283;31
2023/08/01 09:46:36;;;;;;;2.05;1.50;;;;;;;21.85;75.23;97874.84;7197914;40;20440;31
2023/08/01 09:57:13;;;;;;;1.85;1.30;;;;;;;22.10;71.43;97882.31;7234835;40;20295;31
2023/08/01 10:02:49;;;;;;;2.47;1.30;;;;;;;22.62;70.48;97890.28;7253115;40;20273;31
2023/08/01 10:13:25;;;;;;;2.35;1.60;;;;;;;22.80;66.84;97890.56;7170698;40;20288;31
2023/08/01 10:18:58;;;;;;;2.10;1.60;;;;;;;22.97;66.20;97900.41;7174925;40;20296;31
2023/08/01 10:24:33;;;;;;;2.10;1.50;;;;;;;22.71;65.48;97919.69;7234168;40;20315;31
2023/08/01 10:30:11;;;;;;;1.75;1.50;;;;;;;23.10;64.59;97925.41;7227357;40;20280;31
2023/08/01 10:35:48;;;;;;;3.30;1.97;;;;;;;23.02;61.38;97934.22;7224877;40;20358;31
2023/08/01 10:41:23;;;;;;;4.22;1.60;;;;;;;23.05;60.28;97932.84;7217630;40;20251;31
2023/08/01 10:47:01;;;;;;;3.87;1.60;;;;;;;23.21;61.59;97929.75;7242867;40;20276;31
2023/08/01 10:52:35;;;;;;;2.85;1.70;;;;;;;23.61;59.36;97931.59;7213832;40;20348;31
2023/08/01 10:58:07;;;;;;;2.30;1.73;;;;;;;23.55;58.17;97937.41;7193031;40;20250;31
2023/08/01 11:03:50;;;;;;;2.60;1.70;;;;;;;23.64;57.95;97939.28;7183756;40;20282;31
2023/08/01 11:09:28;;;;;;;2.90;2.10;;;;;;;23.51;55.99;97950.91;7183062;40;20262;31
2023/08/01 11:14:57;;;;;;;2.20;1.70;;;;;;;23.65;56.31;97938.16;7204717;40;20380;31
2023/08/01 11:25:34;;;;;;;3.42;1.75;;;;;;;23.83;54.95;97941.41;7201645;40;21208;31
2023/08/01 11:36:13;;;;;;;2.13;1.60;;;;;;;23.51;54.09;97942.66;7255491;40;21053;31
2023/08/01 11:41:49;;;;;;;2.95;1.90;;;;;;;23.54;53.41;97955.84;7261341;39;20267;31
2023/08/01 11:47:26;;;;;;;2.50;1.60;;;;;;;23.98;52.80;97963.34;7307241;39;20257;31
2023/08/01 11:53:01;;;;;;;3.75;1.67;;;;;;;23.64;52.21;97954.97;7249166;40;20262;31
2023/08/01 12:03:36;;;;;;;2.50;1.77;;;;;;;23.90;53.11;97967.53;7217498;40;21172;31
2023/08/01 12:09:11;;;;;;;4.10;1.83;;;;;;;23.40;53.55;97964.91;7261338;40;20294;31
2023/08/01 12:14:32;;;;;;;2.86;1.60;;;;;;;23.61;52.54;97959.09;7236568;40;20317;31
2023/08/01 12:19:49;;;;;;;3.40;1.80;;;;;;;24.10;51.42;97955.56;7198466;40;20254;31
2023/08/01 12:25:25;;;;;;;2.35;1.65;;;;;;;24.21;49.38;97973.72;7210205;40;20253;31
2023/08/01 12:30:58;;;;;;;1.95;1.60;;;;;;;23.96;49.06;97958.13;7190783;40;20658;31
2023/08/01 12:36:17;;;;;;;2.00;1.60;;;;;;;24.05;50.95;97959.16;7193130;40;20471;31
2023/08/01 12:41:51;;;;;;;3.25;1.50;;;;;;;24.02;51.36;97959.75;7211786;40;20523;31
2023/08/01 12:47:26;;;;;;;2.33;1.70;;;;;;;23.70;51.40;97962.09;7215847;40;20573;31
2023/08/01 12:52:46;;;;;;;2.17;1.70;;;;;;;23.84;52.03;97960.38;7231888;40;20265;31
2023/08/01 12:58:20;;;;;;;2.67;1.58;;;;;;;23.74;50.98;97966.75;7234668;40;20249;31
2023/08/01 13:03:40;;;;;;;2.57;1.70;;;;;;;24.11;50.29;97968.22;7206872;40;20282;31
2023/08/01 13:14:21;;;;;;;3.40;1.48;;;;;;;24.36;49.45;97959.00;7202068;40;21225;31
2023/08/01 13:19:41;;;;;;;2.54;1.64;;;;;;;24.42;49.54;97952.38;7241319;40;20330;31
2023/08/01 13:25:03;;;;;;;3.70;2.20;;;;;;;24.51;49.48;97932.19;7236394;40;20275;31
2023/08/01 13:30:37;;;;;;;2.55;1.60;;;;;;;24.66;50.66;97945.81;7214674;40;20433;31
2023/08/01 13:36:12;;;;;;;3.28;2.00;;;;;;;24.52;49.93;97944.88;7179286;40;20258;31
2023/08/01 13:41:47;;;;;;;2.40;1.42;;;;;;;24.18;49.32;97953.06;7195654;40;20410;31
2023/08/01 13:47:23;;;;;;;3.10;1.70;;;;;;;24.07;51.25;97950.63;7165611;40;20247;31
2023/08/01 13:52:55;;;;;;;3.17;1.87;;;;;;;23.98;48.89;97953.16;7173481;40;20317;31
2023/08/01 13:58:30;;;;;;;3.00;1.60;;;;;;;23.87;49.01;97968.06;7166603;40;20251;31
2023/08/01 14:04:06;;;;;;;3.37;2.03;;;;;;;23.86;49.86;97963.69;7143846;40;20274;31
2023/08/01 14:09:24;;;;;;;2.42;1.48;;;;;;;24.08;49.53;97952.28;6915879;40;20235;31
2023/08/01 14:14:58;;;;;;;3.40;1.45;;;;;;;23.95;49.18;97953.75;7203012;40;20271;31
2023/08/01 14:20:34;;;;;;;3.36;1.60;;;;;;;23.83;49.07;97961.47;7212754;40;20436;31
2023/08/01 14:25:55;;;;;;;2.70;1.65;;;;;;;23.61;49.20;97992.12;7165565;40;20271;31
2023/08/01 14:31:13;;;;;;;2.97;1.70;;;;;;;23.61;50.36;97985.78;7225127;40;20276;31
2023/08/01 14:36:48;;;;;;;3.35;1.60;;;;;;;23.61;48.82;97994.03;7208565;40;20277;31
2023/08/01 14:42:23;;;;;;;4.50;1.80;;;;;;;23.77;48.89;97996.47;7262307;40;20426;31
2023/08/01 14:47:58;;;;;;;2.20;1.30;;;;;;;23.77;47.51;98004.75;7248566;40;20280;31
2023/08/01 14:53:32;;;;;;;2.37;1.58;;;;;;;24.01;48.02;98004.91;7254735;40;20338;31
2023/08/01 14:58:53;;;;;;;2.12;1.50;;;;;;;24.21;46.41;98015.03;7241969;40;20261;31
2023/08/01 15:04:24;;;;;;;1.60;1.40;;;;;;;24.14;46.71;97995.19;7251327;40;20246;31
2023/08/01 15:10:00;;;;;;;3.37;1.70;;;;;;;24.29;47.55;98005.34;7231434;40;20511;31
2023/08/01 15:15:35;;;;;;;2.75;1.55;;;;;;;24.12;46.00;98006.50;7211673;40;20328;31
2023/08/01 15:21:10;;;;;;;3.35;1.70;;;;;;;24.09;47.61;98012.56;7260307;40;20264;31
2023/08/01 15:26:46;;;;;;;3.63;1.90;;;;;;;24.18;46.51;98008.16;7237139;40;20429;31
2023/08/01 15:32:19;;;;;;;3.37;1.70;;;;;;;24.15;46.39;98014.22;7267010;40;20260;31
2023/08/01 15:37:54;;;;;;;3.10;1.75;;;;;;;24.12;46.72;98009.25;7248884;40;20422;31
2023/08/01 15:43:29;;;;;;;3.18;1.90;;;;;;;24.16;47.93;98018.63;7167521;40;20313;31
2023/08/01 15:48:49;;;;;;;2.10;1.60;;;;;;;23.79;46.44;98020.94;7174034;40;20261;31
2023/08/01 15:54:20;;;;;;;3.33;1.75;;;;;;;23.77;46.16;98013.00;7203971;40;20262;31
2023/08/01 15:59:51;;;;;;;2.80;1.80;;;;;;;23.72;48.11;98024.03;7164286;40;20286;31
2023/08/01 16:05:23;;;;;;;4.07;1.80;;;;;;;23.69;48.14;98024.59;7183276;40;20366;31
2023/08/01 16:11:11;;;;;;;2.42;1.72;;;;;;;23.63;47.76;98035.88;7167423;40;20343;31
2023/08/01 16:21:50;;;;;;;4.12;2.00;;;;;;;23.42;48.92;98032.31;7192167;40;21210;31
2023/08/01 16:27:10;;;;;;;4.80;1.75;;;;;;;23.29;49.70;98039.22;7199591;40;20261;31
2023/08/01 16:32:30;;;;;;;2.53;1.70;;;;;;;23.26;49.18;98034.25;7232161;40;20268;31
2023/08/01 16:38:06;;;;;;;3.00;1.85;;;;;;;23.22;49.62;98038.66;7199697;40;20442;31
2023/08/01 16:43:23;;;;;;;3.30;2.00;;;;;;;23.32;49.20;98057.06;7164582;40;20461;31
2023/08/01 16:48:43;;;;;;;2.87;1.87;;;;;;;23.40;49.37;98050.19;7219599;40;20251;31
2023/08/01 16:54:20;;;;;;;4.68;1.73;;;;;;;23.08;49.37;98054.06;7206768;40;20339;31
2023/08/01 16:59:55;;;;;;;3.35;2.05;;;;;;;22.90;50.77;98063.66;7215566;40;20277;31
2023/08/01 17:05:27;;;;;;;3.90;2.08;;;;;;;22.83;50.56;98065.87;7184889;40;20270;31
2023/08/01 17:11:03;;;;;;;2.50;1.70;;;;;;;22.72;50.60;98072.47;7164643;40;20266;31
2023/08/01 17:16:35;;;;;;;5.60;2.10;;;;;;;22.70;51.92;98085.63;7173464;40;20258;31
2023/08/01 17:22:10;;;;;;;2.97;2.00;;;;;;;22.63;51.49;98095.22;7192393;40;20363;31
2023/08/01 17:27:46;;;;;;;4.18;2.05;;;;;;;22.55;52.09;98103.97;7226723;40;20245;31
2023/08/01 17:33:07;;;;;;;3.67;2.07;;;;;;;22.48;52.75;98105.06;7228563;40;20262;31
2023/08/01 17:38:27;;;;;;;2.83;1.90;;;;;;;22.59;51.92;98094.09;7228823;40;20265;31
2023/08/01 17:44:01;;;;;;;3.20;1.90;;;;;;;22.54;52.39;98096.84;7247300;40;20264;31
2023/08/01 17:54:21;;;;;;;3.10;1.60;;;;;;;22.59;53.13;98107.84;7274597;40;21228;31
2023/08/01 17:59:54;;;;;;;3.12;2.10;;;;;;;22.37;53.45;98116.28;7255090;40;20260;31
2023/08/01 18:05:14;;;;;;;3.65;1.87;;;;;;;22.36;53.23;98134.69;7241606;40;20273;31
2023/08/01 18:10:45;;;;;;;5.20;2.08;;;;;;;22.34;53.71;98155.25;7193996;40;20270;31
2023/08/01 18:16:21;;;;;;;5.65;2.33;;;;;;;22.17;53.59;98180.16;7212123;40;21130;31
2023/08/01 18:21:38;;;;;;;5.70;1.85;;;;;;;22.04;53.13;98186.13;7231809;40;20309;31
2023/08/01 18:27:13;;;;;;;6.00;2.10;;;;;;;21.90;52.79;98176.66;7256697;40;20360;31
2023/08/01 18:32:46;;;;;;;4.75;2.15;;;;;;;21.82;53.80;98194.44;7244547;40;20281;31
2023/08/01 18:38:03;;;;;;;5.25;2.10;;;;;;;21.78;53.71;98193.31;7234540;40;20277;31
2023/08/01 18:48:42;;;;;;;5.22;1.98;;;;;;;21.62;54.50;98202.53;7240512;40;21165;31
2023/08/01 18:54:13;;;;;;;4.37;2.33;;;;;;;21.59;54.56;98195.63;7261763;40;20267;31
2023/08/01 18:59:48;;;;;;;5.10;2.33;;;;;;;21.56;54.96;98207.12;7222617;40;20284;31
2023/08/01 19:05:22;;;;;;;4.72;2.12;;;;;;;21.44;54.96;98209.22;7253549;40;20265;31
2023/08/01 19:10:39;;;;;;;4.05;2.15;;;;;;;21.47;55.78;98218.84;7177308;40;20345;31
2023/08/01 19:15:56;;;;;;;4.25;1.90;;;;;;;21.34;55.71;98225.59;7184986;40;20265;31
2023/08/01 19:21:29;;;;;;;4.55;2.33;;;;;;;21.33;55.92;98231.31;7183277;40;20253;31
2023/08/01 19:26:46;;;;;;;4.80;2.33;;;;;;;21.28;56.17;98232.09;7211793;40;20276;31
2023/08/01 19:32:04;;;;;;;6.32;2.42;;;;;;;21.22;56.96;98244.09;7218253;40;20316;31
2023/08/01 19:37:37;;;;;;;3.83;2.07;;;;;;;21.28;57.46;98237.56;7237632;40;20532;31
2023/08/01 19:42:54;;;;;;;4.23;2.20;;;;;;;21.18;57.39;98253.94;7207433;40;20339;31
2023/08/01 19:48:14;;;;;;;5.95;2.53;;;;;;;21.07;57.29;98236.50;7213569;40;20456;31
2023/08/01 19:53:47;;;;;;;4.30;2.20;;;;;;;20.98;57.68;98250.91;7264908;40;20260;31
2023/08/01 19:59:04;;;;;;;5.10;2.28;;;;;;;20.90;58.06;98248.63;7240918;40;20508;31
2023/08/01 20:04:21;;;;;;;5.53;2.50;;;;;;;20.79;58.90;98255.09;7236104;40;20271;31
2023/08/01 20:09:57;;;;;;;6.93;2.60;;;;;;;20.73;57.82;98250.63;7296645;40;20255;31
2023/08/01 20:15:26;;;;;;;5.95;2.20;;;;;;;20.73;57.91;98237.75;7261296;40;20249;31
2023/08/01 20:21:02;;;;;;;4.40;1.90;;;;;;;20.74;58.75;98244.91;7278320;39;20281;31
2023/08/01 20:31:35;;;;;;;4.57;2.10;;;;;;;20.56;59.19;98259.75;7247809;40;21260;31
2023/08/01 20:36:52;;;;;;;4.18;2.20;;;;;;;20.54;59.33;98263.78;7227822;40;20269;31
2023/08/01 20:42:10;;;;;;;4.87;2.60;;;;;;;20.50;60.05;98263.47;7003565;40;21297;31
2023/08/01 20:47:46;;;;;;;5.68;2.70;;;;;;;20.40;59.70;98271.56;7207683;40;20292;31
2023/08/01 20:53:04;;;;;;;5.00;2.50;;;;;;;20.35;60.25;98268.75;7181830;40;20273;31
2023/08/01 20:58:34;;;;;;;5.45;2.42;;;;;;;20.39;59.64;98264.44;7273583;40;20372;31
2023/08/01 21:04:07;;;;;;;8.05;2.30;;;;;;;20.30;59.62;98263.22;7253122;40;20253;31
2023/08/01 21:09:43;;;;;;;5.95;2.53;;;;;;;20.25;60.74;98266.66;7223949;40;20273;31
2023/08/01 21:20:24;;;;;;;4.07;2.30;;;;;;;20.19;60.38;98255.87;7210594;40;20368;31
2023/08/01 21:25:45;;;;;;;5.50;2.50;;;;;;;20.15;59.78;98255.56;7199931;40;20354;31
2023/08/01 21:36:22;;;;;;;4.33;2.37;;;;;;;20.07;61.28;98263.37;7254106;40;20326;31
2023/08/01 21:41:40;;;;;;;2.95;1.95;;;;;;;20.05;60.97;98257.34;7246523;40;20343;31
2023/08/01 21:47:00;;;;;;;4.07;1.95;;;;;;;20.01;61.95;98259.72;7251109;40;20382;31
2023/08/01 21:52:32;;;;;;;3.00;2.10;;;;;;;19.93;62.60;98243.72;7213060;40;20258;31
2023/08/01 21:58:05;;;;;;;4.83;2.20;;;;;;;19.88;62.33;98238.19;7235857;40;20345;31
2023/08/01 22:03:25;;;;;;;4.27;2.10;;;;;;;19.88;62.57;98240.09;7254860;40;20253;31
2023/08/01 22:09:00;;;;;;;5.65;2.40;;;;;;;19.86;62.52;98234.03;7236410;40;20252;31
2023/08/01 22:14:36;;;;;;;3.30;2.20;;;;;;;19.85;63.66;98237.84;7196330;40;20266;31
2023/08/01 22:19:56;;;;;;;4.77;2.30;;;;;;;19.84;63.71;98237.00;7243628;40;20394;31
2023/08/01 22:25:31;;;;;;;4.30;2.10;;;;;;;19.75;62.79;98244.81;7268594;40;20280;31
2023/08/01 22:30:52;;;;;;;6.40;2.20;;;;;;;19.73;63.94;98259.81;7205713;40;20460;31
2023/08/01 22:36:26;;;;;;;3.60;2.20;;;;;;;19.68;63.54;98246.06;7209578;40;20258;31
2023/08/01 22:42:02;;;;;;;3.90;2.00;;;;;;;19.66;64.88;98250.94;7254422;40;20348;31
2023/08/01 22:52:24;;;;;;;4.40;1.90;;;;;;;19.62;63.79;98244.31;7250673;40;20275;31
2023/08/01 23:03:00;;;;;;;4.07;1.90;;;;;;;19.52;65.46;98225.84;7299363;39;20271;31
2023/08/01 23:13:36;;;;;;;3.70;2.10;;;;;;;19.53;64.75;98222.03;7246351;40;20274;31
2023/08/01 23:24:10;;;;;;;2.63;2.03;;;;;;;19.49;65.14;98201.72;7287474;39;20256;31
2023/08/01 23:29:45;;;;;;;4.13;2.30;;;;;;;19.45;64.90;98206.03;7272444;40;20269;31
2023/08/01 23:35:05;;;;;;;5.67;2.30;;;;;;;19.45;65.10;98206.03;7277249;40;20257;31
2023/08/01 23:40:43;;;;;;;3.23;2.17;;;;;;;19.44;65.16;98200.84;7255277;40;20246;31
2023/08/01 23:46:00;;;;;;;5.50;2.40;;;;;;;19.55;64.82;98202.66;7212319;40;20292;31
2023/08/01 23:51:35;;;;;;;6.23;2.30;;;;;;;19.49;64.74;98206.38;7210861;40;20273;31
2023/08/01 23:57:11;;;;;;;2.70;1.80;;;;;;;19.51;65.85;98199.59;7235032;40;20276;31
